createdAt,value
2022-10-17T00:00:35.198Z,69.85
2022-10-17T00:03:08.533Z,69.87
2022-10-17T00:05:35.086Z,69.74
2022-10-17T00:08:01.639Z,69.81
2022-10-17T00:10:28.164Z,69.79
2022-10-17T00:12:54.668Z,69.71
2022-10-17T00:15:22.473Z,69.82
2022-10-17T00:17:49.017Z,69.67
2022-10-17T00:20:15.918Z,69.67
2022-10-17T00:22:42.687Z,69.68
2022-10-17T00:25:09.523Z,69.68
2022-10-17T00:27:40.964Z,69.58
2022-10-17T00:30:11.151Z,69.50
2022-10-17T00:32:37.861Z,69.73
2022-10-17T00:35:05.003Z,69.73
2022-10-17T00:37:32.217Z,69.65
2022-10-17T00:39:59.308Z,69.34
2022-10-17T00:42:26.970Z,69.45
2022-10-17T00:45:12.789Z,69.17
2022-10-17T00:47:39.752Z,69.56
2022-10-17T00:50:07.094Z,69.49
2022-10-17T00:52:34.424Z,69.49
2022-10-17T00:55:10.620Z,69.28
2022-10-17T00:57:37.418Z,69.17
2022-10-17T01:00:07.912Z,69.12
2022-10-17T01:02:34.486Z,69.10
2022-10-17T01:05:01.150Z,68.97
2022-10-17T01:07:31.911Z,68.93
2022-10-17T01:10:01.865Z,69.29
2022-10-17T01:12:39.004Z,69.14
2022-10-17T01:15:21.668Z,69.26
2022-10-17T01:18:11.545Z,69.02
2022-10-17T01:20:53.193Z,68.94
2022-10-17T01:23:50.733Z,68.85
2022-10-17T01:26:35.332Z,69.14
2022-10-17T01:29:28.087Z,68.79
2022-10-17T01:32:02.469Z,69.03
2022-10-17T01:34:38.044Z,68.83
2022-10-17T01:37:08.657Z,68.90
2022-10-17T01:39:51.985Z,69.02
2022-10-17T01:42:18.459Z,69.02
2022-10-17T01:44:54.216Z,69.00
2022-10-17T01:47:23.036Z,68.95
2022-10-17T01:49:51.736Z,68.62
2022-10-17T01:52:25.432Z,68.89
2022-10-17T01:54:59.794Z,68.63
2022-10-17T01:57:37.150Z,68.65
2022-10-17T02:00:07.123Z,68.75
2022-10-17T02:02:34.171Z,68.45
2022-10-17T02:07:33.488Z,68.57
2022-10-17T02:10:00.057Z,68.67
2022-10-17T02:12:34.589Z,68.66
2022-10-17T02:15:20.109Z,68.51
2022-10-17T02:17:49.547Z,68.39
2022-10-17T02:20:35.730Z,68.38
2022-10-17T02:23:20.842Z,68.45
2022-10-17T02:26:06.299Z,68.45
2022-10-17T02:28:45.125Z,68.52
2022-10-17T02:31:17.167Z,68.12
2022-10-17T02:33:59.925Z,68.19
2022-10-17T02:36:30.871Z,68.40
2022-10-17T02:38:58.101Z,68.42
2022-10-17T02:41:25.058Z,68.54
2022-10-17T02:43:53.434Z,68.48
2022-10-17T02:46:22.394Z,68.25
2022-10-17T02:48:51.659Z,68.27
2022-10-17T02:51:37.168Z,68.21
2022-10-17T02:54:16.327Z,68.32
2022-10-17T02:56:48.621Z,68.01
2022-10-17T02:59:17.613Z,68.18
2022-10-17T03:01:44.310Z,68.11
2022-10-17T03:04:13.428Z,68.40
2022-10-17T03:06:41.145Z,68.19
2022-10-17T03:09:08.106Z,68.23
2022-10-17T03:11:34.756Z,68.13
2022-10-17T03:14:01.255Z,68.06
2022-10-17T03:16:27.818Z,68.37
2022-10-17T03:18:54.321Z,68.00
2022-10-17T03:21:20.863Z,68.36
2022-10-17T03:23:47.404Z,68.19
2022-10-17T03:26:13.993Z,68.17
2022-10-17T03:28:40.536Z,68.25
2022-10-17T03:31:12.981Z,67.98
2022-10-17T03:33:39.501Z,68.10
2022-10-17T03:36:10.490Z,68.10
2022-10-17T03:38:38.647Z,68.13
2022-10-17T03:41:06.013Z,67.81
2022-10-17T03:43:32.612Z,68.06
2022-10-17T03:45:59.939Z,67.76
2022-10-17T03:48:27.321Z,67.97
2022-10-17T03:51:05.632Z,68.05
2022-10-17T03:53:32.408Z,68.09
2022-10-17T03:56:13.084Z,67.83
2022-10-17T03:58:40.436Z,67.80
2022-10-17T04:01:11.778Z,67.79
2022-10-17T04:03:38.564Z,68.00
2022-10-17T04:06:05.892Z,67.76
2022-10-17T04:08:33.287Z,67.99
2022-10-17T04:11:04.490Z,67.64
2022-10-17T04:13:31.175Z,67.84
2022-10-17T04:16:02.485Z,67.74
2022-10-17T04:18:29.261Z,67.89
2022-10-17T04:20:55.800Z,67.91
2022-10-17T04:23:22.633Z,67.74
2022-10-17T04:25:49.491Z,67.78
2022-10-17T04:28:16.330Z,67.62
2022-10-17T04:30:45.462Z,67.54
2022-10-17T04:33:12.235Z,67.54
2022-10-17T04:35:38.857Z,67.59
2022-10-17T04:38:05.365Z,67.59
2022-10-17T04:40:31.933Z,67.82
2022-10-17T04:42:58.513Z,67.58
2022-10-17T04:45:25.050Z,67.46
2022-10-17T04:47:51.557Z,67.74
2022-10-17T04:50:18.760Z,67.51
2022-10-17T04:52:45.246Z,67.40
2022-10-17T04:55:11.741Z,67.73
2022-10-17T04:57:38.318Z,67.63
2022-10-17T05:00:05.382Z,67.77
2022-10-17T05:02:32.145Z,67.54
2022-10-17T05:04:58.767Z,67.27
2022-10-17T05:07:25.262Z,67.40
2022-10-17T05:09:51.798Z,67.30
2022-10-17T05:12:18.326Z,67.13
2022-10-17T05:14:44.831Z,67.53
2022-10-17T05:17:11.328Z,67.45
2022-10-17T05:19:38.083Z,67.05
2022-10-17T05:22:04.605Z,67.17
2022-10-17T05:24:31.101Z,67.11
2022-10-17T05:26:57.640Z,67.46
2022-10-17T05:29:24.229Z,67.24
2022-10-17T05:31:50.803Z,67.28
2022-10-17T05:34:17.378Z,67.56
2022-10-17T05:36:43.877Z,67.20
2022-10-17T05:39:13.539Z,67.26
2022-10-17T05:41:40.093Z,67.47
2022-10-17T05:44:06.612Z,67.15
2022-10-17T05:46:33.132Z,67.34
2022-10-17T05:48:59.629Z,67.37
2022-10-17T05:51:26.465Z,67.36
2022-10-17T05:53:53.041Z,66.98
2022-10-17T05:56:20.385Z,67.00
2022-10-17T05:58:53.245Z,66.95
2022-10-17T06:01:21.661Z,67.03
2022-10-17T06:03:48.208Z,66.93
2022-10-17T06:06:15.597Z,66.78
2022-10-17T06:08:42.848Z,66.95
2022-10-17T06:11:10.515Z,66.84
2022-10-17T06:13:37.765Z,66.94
2022-10-17T06:16:04.844Z,66.89
2022-10-17T06:18:31.354Z,66.84
2022-10-17T06:21:10.200Z,66.75
2022-10-17T06:23:36.924Z,66.71
2022-10-17T06:26:05.444Z,66.66
2022-10-17T06:28:32.322Z,66.96
2022-10-17T06:30:58.878Z,66.89
2022-10-17T06:33:25.427Z,66.98
2022-10-17T06:35:53.350Z,66.97
2022-10-17T06:38:20.169Z,66.79
2022-10-17T06:40:46.781Z,66.69
2022-10-17T06:43:13.757Z,66.63
2022-10-17T06:45:40.644Z,66.60
2022-10-17T06:48:07.477Z,66.51
2022-10-17T06:50:34.271Z,66.55
2022-10-17T06:53:00.774Z,66.40
2022-10-17T06:55:27.292Z,66.45
2022-10-17T06:57:56.983Z,66.43
2022-10-17T07:00:23.712Z,66.15
2022-10-17T07:02:50.461Z,66.45
2022-10-17T07:05:17.343Z,66.08
2022-10-17T07:07:45.521Z,66.10
2022-10-17T07:10:13.974Z,66.09
2022-10-17T07:12:40.530Z,65.87
2022-10-17T07:15:07.539Z,65.86
2022-10-17T07:17:34.182Z,65.55
2022-10-17T07:20:00.728Z,65.69
2022-10-17T07:22:27.318Z,65.50
2022-10-17T07:24:53.841Z,65.46
2022-10-17T07:27:20.355Z,65.40
2022-10-17T07:29:46.852Z,65.29
2022-10-17T07:32:13.333Z,65.27
2022-10-17T07:34:39.861Z,65.17
2022-10-17T07:37:07.404Z,65.00
2022-10-17T07:39:35.676Z,65.06
2022-10-17T07:42:02.282Z,64.76
2022-10-17T07:44:28.849Z,64.83
2022-10-17T07:46:55.360Z,64.68
2022-10-17T07:49:21.891Z,64.58
2022-10-17T07:51:48.704Z,64.63
2022-10-17T07:54:15.308Z,64.42
2022-10-17T07:56:41.846Z,64.33
2022-10-17T07:59:09.536Z,64.37
2022-10-17T08:01:36.993Z,64.17
2022-10-17T08:04:03.693Z,64.03
2022-10-17T08:06:30.227Z,64.07
2022-10-17T08:08:58.008Z,63.72
2022-10-17T08:11:25.423Z,63.70
2022-10-17T08:13:52.026Z,63.46
2022-10-17T08:16:18.606Z,63.25
2022-10-17T08:18:45.132Z,63.42
2022-10-17T08:21:13.239Z,62.91
2022-10-17T08:23:40.396Z,63.00
2022-10-17T08:26:10.468Z,62.74
2022-10-17T08:28:38.677Z,62.76
2022-10-17T08:31:11.315Z,62.88
2022-10-17T08:33:37.888Z,62.74
2022-10-17T08:36:05.588Z,62.48
2022-10-17T08:38:36.940Z,62.26
2022-10-17T08:41:07.817Z,62.26
2022-10-17T08:43:40.179Z,62.27
2022-10-17T08:46:09.054Z,61.97
2022-10-17T08:48:45.505Z,62.02
2022-10-17T08:51:21.614Z,61.81
2022-10-17T08:54:00.628Z,61.92
2022-10-17T08:56:49.622Z,62.05
2022-10-17T08:59:20.374Z,62.14
2022-10-17T09:02:19.328Z,62.38
2022-10-17T09:05:02.103Z,62.47
2022-10-17T09:07:42.119Z,62.60
2022-10-17T09:10:23.814Z,62.55
2022-10-17T09:13:23.168Z,62.72
2022-10-17T09:15:55.649Z,62.86
2022-10-17T09:18:28.504Z,63.10
2022-10-17T09:20:59.378Z,63.31
2022-10-17T09:23:28.960Z,63.12
2022-10-17T09:25:58.661Z,63.36
2022-10-17T09:28:31.442Z,63.41
2022-10-17T09:31:14.697Z,63.31
2022-10-17T09:33:54.894Z,63.34
2022-10-17T09:36:34.375Z,63.66
2022-10-17T09:39:04.099Z,63.76
2022-10-17T09:41:50.502Z,63.92
2022-10-17T09:44:32.047Z,63.96
2022-10-17T09:47:39.229Z,63.88
2022-10-17T09:50:10.935Z,64.13
2022-10-17T09:52:41.024Z,64.06
2022-10-17T09:55:16.828Z,64.13
2022-10-17T09:57:59.183Z,64.25
2022-10-17T10:00:31.445Z,64.19
2022-10-17T10:03:18.281Z,64.10
2022-10-17T10:06:03.117Z,64.23
2022-10-17T10:08:34.377Z,64.39
2022-10-17T10:11:13.396Z,64.20
2022-10-17T10:13:40.431Z,64.33
2022-10-17T10:16:18.365Z,64.43
2022-10-17T10:18:47.445Z,64.13
2022-10-17T10:21:20.099Z,64.18
2022-10-17T10:24:03.342Z,64.38
2022-10-17T10:26:35.872Z,64.44
2022-10-17T10:29:06.046Z,64.50
2022-10-17T10:31:37.564Z,64.26
2022-10-17T10:34:24.199Z,64.57
2022-10-17T10:36:58.154Z,64.29
2022-10-17T10:39:45.312Z,64.28
2022-10-17T10:42:29.091Z,64.42
2022-10-17T10:45:00.004Z,64.49
2022-10-17T10:47:31.197Z,64.90
2022-10-17T10:50:16.882Z,64.79
2022-10-17T10:52:48.129Z,64.54
2022-10-17T10:55:20.206Z,64.67
2022-10-17T10:57:47.700Z,64.43
2022-10-17T11:00:21.677Z,64.77
2022-10-17T11:02:52.951Z,64.72
2022-10-17T11:05:34.932Z,64.57
2022-10-17T11:08:37.056Z,64.68
2022-10-17T11:11:18.111Z,64.40
2022-10-17T11:14:11.669Z,64.46
2022-10-17T11:16:46.589Z,64.61
2022-10-17T11:19:26.137Z,64.38
2022-10-17T11:22:37.564Z,64.33
2022-10-17T11:25:14.397Z,64.45
2022-10-17T11:27:40.922Z,64.70
2022-10-17T11:30:12.892Z,64.40
2022-10-17T11:33:08.725Z,64.46
2022-10-17T11:35:40.559Z,64.41
2022-10-17T11:38:16.188Z,64.64
2022-10-17T11:40:46.670Z,64.47
2022-10-17T11:43:25.636Z,64.57
2022-10-17T11:46:02.793Z,64.72
2022-10-17T11:48:34.613Z,64.66
2022-10-17T11:54:04.589Z,64.68
2022-10-17T11:56:55.971Z,64.65
2022-10-17T11:59:34.653Z,64.47
2022-10-17T12:02:13.099Z,64.86
2022-10-17T12:04:49.806Z,64.81
2022-10-17T12:07:48.893Z,64.51
2022-10-17T12:10:26.981Z,64.64
2022-10-17T12:12:53.501Z,65.11
2022-10-17T12:15:19.963Z,65.08
2022-10-17T12:17:55.031Z,65.12
2022-10-17T12:20:24.381Z,64.96
2022-10-17T12:22:51.233Z,64.58
2022-10-17T12:25:31.548Z,64.42
2022-10-17T12:28:21.189Z,64.42
2022-10-17T12:31:00.060Z,64.65
2022-10-17T12:33:50.177Z,64.47
2022-10-17T12:36:17.071Z,64.38
2022-10-17T12:38:51.234Z,64.46
2022-10-17T12:41:44.789Z,64.49
2022-10-17T12:44:14.510Z,64.03
2022-10-17T12:46:45.665Z,64.35
2022-10-17T12:49:38.658Z,64.33
2022-10-17T12:52:11.261Z,64.21
2022-10-17T12:54:47.755Z,64.21
2022-10-17T12:57:35.442Z,64.04
2022-10-17T13:00:24.201Z,64.08
2022-10-17T13:02:54.287Z,63.83
2022-10-17T13:05:23.821Z,63.71
2022-10-17T13:07:52.226Z,63.98
2022-10-17T13:10:24.907Z,63.58
2022-10-17T13:12:54.634Z,63.76
2022-10-17T13:15:21.388Z,63.94
2022-10-17T13:17:56.135Z,63.73
2022-10-17T13:20:29.072Z,63.83
2022-10-17T13:22:58.946Z,63.79
2022-10-17T13:25:27.072Z,63.92
2022-10-17T13:28:04.942Z,63.63
2022-10-17T13:30:34.110Z,63.93
2022-10-17T13:33:01.596Z,63.82
2022-10-17T13:35:58.813Z,63.69
2022-10-17T13:38:28.290Z,63.68
2022-10-17T13:41:01.769Z,63.85
2022-10-17T13:43:38.762Z,63.85
2022-10-17T13:46:25.626Z,63.97
2022-10-17T13:48:52.773Z,63.98
2022-10-17T13:51:19.993Z,63.81
2022-10-17T13:53:46.547Z,64.01
2022-10-17T13:56:29.875Z,63.99
2022-10-17T13:58:59.255Z,64.13
2022-10-17T14:01:27.647Z,63.75
2022-10-17T14:04:07.729Z,63.97
2022-10-17T14:06:43.945Z,63.68
2022-10-17T14:09:22.718Z,63.84
2022-10-17T14:12:02.375Z,63.74
2022-10-17T14:14:30.429Z,64.11
2022-10-17T14:17:16.008Z,64.05
2022-10-17T14:19:46.008Z,63.86
2022-10-17T14:22:26.641Z,64.03
2022-10-17T14:24:53.647Z,63.86
2022-10-17T14:27:26.080Z,64.00
2022-10-17T14:29:54.192Z,64.12
2022-10-17T14:32:21.649Z,63.85
2022-10-17T14:34:55.197Z,63.85
2022-10-17T14:37:33.491Z,64.03
2022-10-17T14:40:01.216Z,64.04
2022-10-17T14:42:27.790Z,63.88
2022-10-17T14:44:56.035Z,63.71
2022-10-17T14:50:12.983Z,64.23
2022-10-17T14:52:40.972Z,63.92
2022-10-17T14:55:37.920Z,64.11
2022-10-17T14:58:18.248Z,64.06
2022-10-17T15:00:44.853Z,64.14
2022-10-17T15:03:11.476Z,64.24
2022-10-17T15:05:38.145Z,64.17
2022-10-17T15:08:09.301Z,64.36
2022-10-17T15:10:36.961Z,64.34
2022-10-17T15:13:26.723Z,64.39
2022-10-17T15:15:52.306Z,64.63
2022-10-17T15:18:19.383Z,64.40
2022-10-17T15:20:45.973Z,64.46
2022-10-17T15:23:12.502Z,64.53
2022-10-17T15:25:39.257Z,64.40
2022-10-17T15:28:05.884Z,64.46
2022-10-17T15:30:35.754Z,64.32
2022-10-17T15:33:02.318Z,64.56
2022-10-17T15:35:29.071Z,64.31
2022-10-17T15:37:55.704Z,64.52
2022-10-17T15:40:31.206Z,64.50
2022-10-17T15:42:58.099Z,64.61
2022-10-17T15:45:25.075Z,64.66
2022-10-17T15:47:57.445Z,64.93
2022-10-17T15:50:23.962Z,64.76
2022-10-17T15:52:53.640Z,64.83
2022-10-17T15:55:20.244Z,65.04
2022-10-17T15:57:47.715Z,64.98
2022-10-17T16:00:24.042Z,65.03
2022-10-17T16:02:50.963Z,64.84
2022-10-17T16:05:23.274Z,64.97
2022-10-17T16:07:50.084Z,65.18
2022-10-17T16:10:17.348Z,64.74
2022-10-17T16:12:44.597Z,65.09
2022-10-17T16:15:17.130Z,64.94
2022-10-17T16:17:43.958Z,65.22
2022-10-17T16:20:12.001Z,65.09
2022-10-17T16:22:40.636Z,65.09
2022-10-17T16:25:19.393Z,64.99
2022-10-17T16:27:50.109Z,65.16
2022-10-17T16:30:16.892Z,65.15
2022-10-17T16:32:43.851Z,65.27
2022-10-17T16:35:16.943Z,65.35
2022-10-17T16:37:43.612Z,65.16
2022-10-17T16:40:10.976Z,65.24
2022-10-17T16:42:37.575Z,65.22
2022-10-17T16:45:04.591Z,65.50
2022-10-17T16:47:31.151Z,65.51
2022-10-17T16:49:57.761Z,65.69
2022-10-17T16:52:24.459Z,65.38
2022-10-17T16:54:51.095Z,65.59
2022-10-17T16:57:17.589Z,65.59
2022-10-17T16:59:44.099Z,65.65
2022-10-17T17:02:12.009Z,65.44
2022-10-17T17:04:38.710Z,65.69
2022-10-17T17:07:05.342Z,65.78
2022-10-17T17:09:31.932Z,65.61
2022-10-17T17:11:58.449Z,65.69
2022-10-17T17:14:25.017Z,65.71
2022-10-17T17:16:51.560Z,65.76
2022-10-17T17:19:18.292Z,65.92
2022-10-17T17:21:50.086Z,65.94
2022-10-17T17:24:17.956Z,65.82
2022-10-17T17:26:44.653Z,66.00
2022-10-17T17:29:12.273Z,65.76
2022-10-17T17:31:42.018Z,65.70
2022-10-17T17:34:09.140Z,65.73
2022-10-17T17:36:37.875Z,65.58
2022-10-17T17:39:06.931Z,65.65
2022-10-17T17:41:33.690Z,65.61
2022-10-17T17:44:01.039Z,65.44
2022-10-17T17:46:27.766Z,65.53
2022-10-17T17:48:55.367Z,65.49
2022-10-17T17:51:28.344Z,65.34
2022-10-17T17:53:56.298Z,65.28
2022-10-17T17:56:25.575Z,65.24
2022-10-17T17:58:57.632Z,65.18
2022-10-17T18:01:25.962Z,65.19
2022-10-17T18:03:53.836Z,65.16
2022-10-17T18:06:21.208Z,65.13
2022-10-17T18:08:50.278Z,65.13
2022-10-17T18:11:19.639Z,65.26
2022-10-17T18:13:48.434Z,65.17
2022-10-17T18:16:16.810Z,65.14
2022-10-17T18:18:44.980Z,65.08
2022-10-17T18:21:12.916Z,65.24
2022-10-17T18:23:40.817Z,65.30
2022-10-17T18:26:07.576Z,65.33
2022-10-17T18:28:35.997Z,65.15
2022-10-17T18:31:24.226Z,64.97
2022-10-17T18:33:55.270Z,65.10
2022-10-17T18:36:22.249Z,65.17
2022-10-17T18:38:49.254Z,65.02
2022-10-17T18:41:18.838Z,65.13
2022-10-17T18:43:46.997Z,65.09
2022-10-17T18:46:21.599Z,65.09
2022-10-17T18:48:49.247Z,65.11
2022-10-17T18:51:19.830Z,64.96
2022-10-17T18:53:49.126Z,64.97
2022-10-17T18:56:15.864Z,65.08
2022-10-17T18:58:42.624Z,65.07
2022-10-17T19:01:12.019Z,65.10
2022-10-17T19:03:38.596Z,65.22
2022-10-17T19:06:09.704Z,65.13
2022-10-17T19:08:37.024Z,65.00
2022-10-17T19:11:33.478Z,65.04
2022-10-17T19:14:14.133Z,65.00
2022-10-17T19:16:46.139Z,65.04
2022-10-17T19:19:24.563Z,65.12
2022-10-17T19:21:51.808Z,65.02
2022-10-17T19:24:21.834Z,65.03
2022-10-17T19:26:55.942Z,65.12
2022-10-17T19:29:24.794Z,64.90
2022-10-17T19:31:52.028Z,65.10
2022-10-17T19:34:19.078Z,65.11
2022-10-17T19:36:46.175Z,65.18
2022-10-17T19:39:16.092Z,64.80
2022-10-17T19:41:44.176Z,65.03
2022-10-17T19:44:11.163Z,64.98
2022-10-17T19:46:37.979Z,65.01
2022-10-17T19:49:05.231Z,65.17
2022-10-17T19:51:32.367Z,65.08
2022-10-17T19:54:00.580Z,65.02
2022-10-17T19:56:30.134Z,64.88
2022-10-17T19:58:57.248Z,64.67
2022-10-17T20:01:25.946Z,64.84
2022-10-17T20:03:53.166Z,64.78
2022-10-17T20:06:20.702Z,64.95
2022-10-17T20:08:47.271Z,64.75
2022-10-17T20:11:16.155Z,64.80
2022-10-17T20:13:42.762Z,64.66
2022-10-17T20:16:12.279Z,64.87
2022-10-17T20:18:40.841Z,64.91
2022-10-17T20:21:10.914Z,64.96
2022-10-17T20:23:37.781Z,64.85
2022-10-17T20:26:25.479Z,64.89
2022-10-17T20:28:53.534Z,64.95
2022-10-17T20:31:20.756Z,65.13
2022-10-17T20:33:47.358Z,65.13
2022-10-17T20:36:16.562Z,65.04
2022-10-17T20:38:43.097Z,65.27
2022-10-17T20:41:10.533Z,65.02
2022-10-17T20:43:38.432Z,65.09
2022-10-17T20:46:22.796Z,65.37
2022-10-17T20:48:53.784Z,65.16
2022-10-17T20:51:21.024Z,65.29
2022-10-17T20:53:48.244Z,65.17
2022-10-17T20:56:20.921Z,65.23
2022-10-17T20:58:52.171Z,65.04
2022-10-17T21:01:18.862Z,65.26
2022-10-17T21:03:46.676Z,65.11
2022-10-17T21:06:16.386Z,65.00
2022-10-17T21:08:43.224Z,65.11
2022-10-17T21:11:13.340Z,65.28
2022-10-17T21:13:40.493Z,65.07
2022-10-17T21:16:09.277Z,65.20
2022-10-17T21:18:37.382Z,65.23
2022-10-17T21:21:26.730Z,65.10
2022-10-17T21:23:58.548Z,65.16
2022-10-17T21:26:25.143Z,65.16
2022-10-17T21:28:51.763Z,65.11
2022-10-17T21:31:25.787Z,65.29
2022-10-17T21:33:55.712Z,65.26
2022-10-17T21:36:23.505Z,65.12
2022-10-17T21:38:52.167Z,65.47
2022-10-17T21:41:27.572Z,65.13
2022-10-17T21:43:56.144Z,65.02
2022-10-17T21:46:23.085Z,65.54
2022-10-17T21:48:51.757Z,65.53
2022-10-17T21:51:21.311Z,65.59
2022-10-17T21:53:48.551Z,65.54
2022-10-17T21:56:16.994Z,65.52
2022-10-17T21:58:44.107Z,65.31
2022-10-17T22:01:22.399Z,65.69
2022-10-17T22:03:51.796Z,65.55
2022-10-17T22:09:13.727Z,65.77
2022-10-17T22:11:40.843Z,65.50
2022-10-17T22:14:11.273Z,65.56
2022-10-17T22:16:38.448Z,65.51
2022-10-17T22:19:06.842Z,65.66
2022-10-17T22:21:35.386Z,65.71
2022-10-17T22:24:04.505Z,65.39
2022-10-17T22:26:32.389Z,65.69
2022-10-17T22:28:59.014Z,65.49
2022-10-17T22:31:25.984Z,65.82
2022-10-17T22:33:52.545Z,65.75
2022-10-17T22:36:19.506Z,65.95
2022-10-17T22:38:46.088Z,65.81
2022-10-17T22:41:12.638Z,65.78
2022-10-17T22:43:39.140Z,65.84
2022-10-17T22:46:06.699Z,65.92
2022-10-17T22:48:33.884Z,65.87
2022-10-17T22:51:00.619Z,65.55
2022-10-17T22:53:27.432Z,66.09
2022-10-17T22:55:58.700Z,65.88
2022-10-17T22:58:25.870Z,66.02
2022-10-17T23:00:53.393Z,66.14
2022-10-17T23:03:21.119Z,65.92
2022-10-17T23:05:47.919Z,66.12
2022-10-17T23:08:15.190Z,65.98
2022-10-17T23:10:42.005Z,65.96
2022-10-17T23:13:08.505Z,65.98
2022-10-17T23:15:35.135Z,65.90
2022-10-17T23:18:02.389Z,65.99
2022-10-17T23:20:29.886Z,66.00
2022-10-17T23:22:56.901Z,66.10
2022-10-17T23:25:23.606Z,65.89
2022-10-17T23:27:50.228Z,66.04
2022-10-17T23:30:17.079Z,65.99
2022-10-17T23:32:43.765Z,65.92
2022-10-17T23:35:10.827Z,65.88
2022-10-17T23:37:37.367Z,65.92
2022-10-17T23:40:05.471Z,66.24
2022-10-17T23:42:32.138Z,65.84
2022-10-17T23:44:58.655Z,66.01
2022-10-17T23:47:25.206Z,65.91
2022-10-17T23:49:51.733Z,65.95
2022-10-17T23:52:18.247Z,66.33
2022-10-17T23:54:44.835Z,66.31
2022-10-17T23:57:11.382Z,66.34
2022-10-17T23:59:37.871Z,65.99
